sensor_id;sensor_type;location;lat;lon;timestamp;temperature;humidity
23839;DHT22;12100;44.384;20.272;2022-11-27T00:01:18;4.60;99.90
23839;DHT22;12100;44.384;20.272;2022-11-27T00:03:44;4.60;99.90
23839;DHT22;12100;44.384;20.272;2022-11-27T00:06:12;4.60;99.90
23839;DHT22;12100;44.384;20.272;2022-11-27T00:08:41;4.50;99.90
23839;DHT22;12100;44.384;20.272;2022-11-27T00:11:08;4.50;99.90
23839;DHT22;12100;44.384;20.272;2022-11-27T00:13:35;4.50;99.90
23839;DHT22;12100;44.384;20.272;2022-11-27T00:16:01;4.50;99.90
23839;DHT22;12100;44.384;20.272;2022-11-27T00:18:28;4.50;99.90
23839;DHT22;12100;44.384;20.272;2022-11-27T00:20:53;4.50;99.90
23839;DHT22;12100;44.384;20.272;2022-11-27T00:23:19;4.50;99.90
23839;DHT22;12100;44.384;20.272;2022-11-27T00:25:52;4.50;99.90
23839;DHT22;12100;44.384;20.272;2022-11-27T00:28:19;4.50;99.90
23839;DHT22;12100;44.384;20.272;2022-11-27T00:30:45;4.50;99.90
23839;DHT22;12100;44.384;20.272;2022-11-27T00:33:11;4.40;99.90
23839;DHT22;12100;44.384;20.272;2022-11-27T00:35:37;4.40;99.90
23839;DHT22;12100;44.384;20.272;2022-11-27T00:38:04;4.40;99.90
23839;DHT22;12100;44.384;20.272;2022-11-27T00:40:29;4.40;99.90
23839;DHT22;12100;44.384;20.272;2022-11-27T00:42:55;4.40;99.90
23839;DHT22;12100;44.384;20.272;2022-11-27T00:45:21;4.30;99.90
23839;DHT22;12100;44.384;20.272;2022-11-27T00:47:47;4.40;99.90
23839;DHT22;12100;44.384;20.272;2022-11-27T00:50:13;4.30;99.90
23839;DHT22;12100;44.384;20.272;2022-11-27T00:52:39;4.30;99.90
23839;DHT22;12100;44.384;20.272;2022-11-27T00:55:05;4.30;99.90
23839;DHT22;12100;44.384;20.272;2022-11-27T00:57:31;4.20;99.90
23839;DHT22;12100;44.384;20.272;2022-11-27T00:59:57;4.30;99.90
23839;DHT22;12100;44.384;20.272;2022-11-27T01:02:23;4.30;99.90
23839;DHT22;12100;44.384;20.272;2022-11-27T01:04:48;4.30;99.90
23839;DHT22;12100;44.384;20.272;2022-11-27T01:07:14;4.30;99.90
23839;DHT22;12100;44.384;20.272;2022-11-27T01:09:40;4.30;99.90
23839;DHT22;12100;44.384;20.272;2022-11-27T01:12:06;4.30;99.90
23839;DHT22;12100;44.384;20.272;2022-11-27T01:14:32;4.30;99.90
23839;DHT22;12100;44.384;20.272;2022-11-27T01:16:59;4.20;99.90
23839;DHT22;12100;44.384;20.272;2022-11-27T01:19:24;4.30;99.90
23839;DHT22;12100;44.384;20.272;2022-11-27T01:21:50;4.30;99.90
23839;DHT22;12100;44.384;20.272;2022-11-27T01:24:16;4.20;99.90
23839;DHT22;12100;44.384;20.272;2022-11-27T01:26:43;4.20;99.90
23839;DHT22;12100;44.384;20.272;2022-11-27T01:29:09;4.20;99.90
23839;DHT22;12100;44.384;20.272;2022-11-27T01:31:36;4.30;99.90
23839;DHT22;12100;44.384;20.272;2022-11-27T01:34:07;4.20;99.90
23839;DHT22;12100;44.384;20.272;2022-11-27T01:36:34;4.20;99.90
23839;DHT22;12100;44.384;20.272;2022-11-27T01:39:01;4.30;99.90
23839;DHT22;12100;44.384;20.272;2022-11-27T01:41:30;4.30;99.90
23839;DHT22;12100;44.384;20.272;2022-11-27T01:46:51;4.30;99.90
23839;DHT22;12100;44.384;20.272;2022-11-27T01:49:42;4.30;99.90
23839;DHT22;12100;44.384;20.272;2022-11-27T01:52:10;4.30;99.90
23839;DHT22;12100;44.384;20.272;2022-11-27T01:55:27;4.30;99.90
23839;DHT22;12100;44.384;20.272;2022-11-27T01:57:59;4.30;99.90
23839;DHT22;12100;44.384;20.272;2022-11-27T02:00:25;4.30;99.90
23839;DHT22;12100;44.384;20.272;2022-11-27T02:02:51;4.30;99.90
23839;DHT22;12100;44.384;20.272;2022-11-27T02:05:21;4.30;99.90
23839;DHT22;12100;44.384;20.272;2022-11-27T02:07:47;4.30;99.90
23839;DHT22;12100;44.384;20.272;2022-11-27T02:10:14;4.30;99.90
23839;DHT22;12100;44.384;20.272;2022-11-27T02:12:57;4.30;99.90
23839;DHT22;12100;44.384;20.272;2022-11-27T02:21:19;4.40;99.90
23839;DHT22;12100;44.384;20.272;2022-11-27T02:29:25;4.40;99.90
23839;DHT22;12100;44.384;20.272;2022-11-27T02:31:58;4.40;99.90
23839;DHT22;12100;44.384;20.272;2022-11-27T02:37:17;4.30;99.90
23839;DHT22;12100;44.384;20.272;2022-11-27T02:43:19;4.30;99.90
23839;DHT22;12100;44.384;20.272;2022-11-27T02:45:45;4.30;99.90
23839;DHT22;12100;44.384;20.272;2022-11-27T02:48:14;4.30;99.90
23839;DHT22;12100;44.384;20.272;2022-11-27T02:50:42;4.30;99.90
23839;DHT22;12100;44.384;20.272;2022-11-27T02:53:16;4.30;99.90
23839;DHT22;12100;44.384;20.272;2022-11-27T02:55:43;4.40;99.90
23839;DHT22;12100;44.384;20.272;2022-11-27T02:58:13;4.40;99.90
23839;DHT22;12100;44.384;20.272;2022-11-27T03:00:42;4.40;99.90
23839;DHT22;12100;44.384;20.272;2022-11-27T03:03:12;4.40;99.90
23839;DHT22;12100;44.384;20.272;2022-11-27T03:05:42;4.40;99.90
23839;DHT22;12100;44.384;20.272;2022-11-27T03:08:31;4.40;99.90
23839;DHT22;12100;44.384;20.272;2022-11-27T03:11:03;4.40;99.90
23839;DHT22;12100;44.384;20.272;2022-11-27T03:13:32;4.40;99.90
23839;DHT22;12100;44.384;20.272;2022-11-27T03:18:51;4.40;99.90
23839;DHT22;12100;44.384;20.272;2022-11-27T03:21:25;4.40;99.90
23839;DHT22;12100;44.384;20.272;2022-11-27T03:23:52;4.40;99.90
23839;DHT22;12100;44.384;20.272;2022-11-27T03:26:18;4.30;99.90
23839;DHT22;12100;44.384;20.272;2022-11-27T03:28:45;4.30;99.90
23839;DHT22;12100;44.384;20.272;2022-11-27T03:31:12;4.30;99.90
23839;DHT22;12100;44.384;20.272;2022-11-27T03:33:38;4.30;99.90
23839;DHT22;12100;44.384;20.272;2022-11-27T03:36:15;4.30;99.90
23839;DHT22;12100;44.384;20.272;2022-11-27T03:38:43;4.30;99.90
23839;DHT22;12100;44.384;20.272;2022-11-27T03:41:18;4.30;99.90
23839;DHT22;12100;44.384;20.272;2022-11-27T03:44:05;4.30;99.90
23839;DHT22;12100;44.384;20.272;2022-11-27T03:52:29;4.30;99.90
23839;DHT22;12100;44.384;20.272;2022-11-27T03:55:15;4.30;99.90
23839;DHT22;12100;44.384;20.272;2022-11-27T03:57:57;4.30;99.90
23839;DHT22;12100;44.384;20.272;2022-11-27T04:00:23;4.40;99.90
23839;DHT22;12100;44.384;20.272;2022-11-27T04:02:51;4.30;99.90
23839;DHT22;12100;44.384;20.272;2022-11-27T04:05:18;4.40;99.90
23839;DHT22;12100;44.384;20.272;2022-11-27T04:07:44;4.40;99.90
23839;DHT22;12100;44.384;20.272;2022-11-27T04:10:11;4.40;99.90
23839;DHT22;12100;44.384;20.272;2022-11-27T04:12:37;4.40;99.90
23839;DHT22;12100;44.384;20.272;2022-11-27T04:15:04;4.50;99.90
23839;DHT22;12100;44.384;20.272;2022-11-27T04:17:30;4.40;99.90
23839;DHT22;12100;44.384;20.272;2022-11-27T04:19:56;4.40;99.90
23839;DHT22;12100;44.384;20.272;2022-11-27T04:22:22;4.40;99.90
23839;DHT22;12100;44.384;20.272;2022-11-27T04:24:48;4.40;99.90
23839;DHT22;12100;44.384;20.272;2022-11-27T04:27:14;4.40;99.90
23839;DHT22;12100;44.384;20.272;2022-11-27T04:29:40;4.40;99.90
23839;DHT22;12100;44.384;20.272;2022-11-27T04:32:05;4.40;99.90
23839;DHT22;12100;44.384;20.272;2022-11-27T04:34:31;4.40;99.90
23839;DHT22;12100;44.384;20.272;2022-11-27T04:36:57;4.40;99.90
23839;DHT22;12100;44.384;20.272;2022-11-27T04:39:23;4.50;99.90
23839;DHT22;12100;44.384;20.272;2022-11-27T04:41:49;4.50;99.90
23839;DHT22;12100;44.384;20.272;2022-11-27T04:44:15;4.40;99.90
23839;DHT22;12100;44.384;20.272;2022-11-27T04:46:41;4.40;99.90
23839;DHT22;12100;44.384;20.272;2022-11-27T04:49:08;4.40;99.90
23839;DHT22;12100;44.384;20.272;2022-11-27T04:51:33;4.40;99.90
23839;DHT22;12100;44.384;20.272;2022-11-27T04:53:59;4.40;99.90
23839;DHT22;12100;44.384;20.272;2022-11-27T04:56:25;4.50;99.90
23839;DHT22;12100;44.384;20.272;2022-11-27T04:58:51;4.40;99.90
23839;DHT22;12100;44.384;20.272;2022-11-27T05:01:16;4.30;99.90
23839;DHT22;12100;44.384;20.272;2022-11-27T05:03:42;4.30;99.90
23839;DHT22;12100;44.384;20.272;2022-11-27T05:06:08;4.30;99.90
23839;DHT22;12100;44.384;20.272;2022-11-27T05:08:34;4.30;99.90
23839;DHT22;12100;44.384;20.272;2022-11-27T05:11:00;4.40;99.90
23839;DHT22;12100;44.384;20.272;2022-11-27T05:13:27;4.40;99.90
23839;DHT22;12100;44.384;20.272;2022-11-27T05:15:52;4.40;99.90
23839;DHT22;12100;44.384;20.272;2022-11-27T05:18:18;4.50;99.90
23839;DHT22;12100;44.384;20.272;2022-11-27T05:20:44;4.50;99.90
23839;DHT22;12100;44.384;20.272;2022-11-27T05:23:10;4.50;99.90
23839;DHT22;12100;44.384;20.272;2022-11-27T05:25:36;4.50;99.90
23839;DHT22;12100;44.384;20.272;2022-11-27T05:28:02;4.50;99.90
23839;DHT22;12100;44.384;20.272;2022-11-27T05:30:27;4.50;99.90
23839;DHT22;12100;44.384;20.272;2022-11-27T05:32:53;4.50;99.90
23839;DHT22;12100;44.384;20.272;2022-11-27T05:35:19;4.40;99.90
23839;DHT22;12100;44.384;20.272;2022-11-27T05:37:45;4.50;99.90
23839;DHT22;12100;44.384;20.272;2022-11-27T05:40:11;4.40;99.90
23839;DHT22;12100;44.384;20.272;2022-11-27T05:42:36;4.50;99.90
23839;DHT22;12100;44.384;20.272;2022-11-27T05:45:03;4.50;99.90
23839;DHT22;12100;44.384;20.272;2022-11-27T05:47:28;4.40;99.90
23839;DHT22;12100;44.384;20.272;2022-11-27T05:49:54;4.50;99.90
23839;DHT22;12100;44.384;20.272;2022-11-27T05:52:20;4.50;99.90
23839;DHT22;12100;44.384;20.272;2022-11-27T05:54:46;4.40;99.90
23839;DHT22;12100;44.384;20.272;2022-11-27T05:57:11;4.40;99.90
23839;DHT22;12100;44.384;20.272;2022-11-27T05:59:37;4.40;99.90
23839;DHT22;12100;44.384;20.272;2022-11-27T06:02:03;4.40;99.90
23839;DHT22;12100;44.384;20.272;2022-11-27T06:04:32;4.40;99.90
23839;DHT22;12100;44.384;20.272;2022-11-27T06:06:58;4.40;99.90
23839;DHT22;12100;44.384;20.272;2022-11-27T06:09:24;4.40;99.90
23839;DHT22;12100;44.384;20.272;2022-11-27T06:11:50;4.40;99.90
23839;DHT22;12100;44.384;20.272;2022-11-27T06:14:16;4.50;99.90
23839;DHT22;12100;44.384;20.272;2022-11-27T06:16:42;4.40;99.90
23839;DHT22;12100;44.384;20.272;2022-11-27T06:19:08;4.40;99.90
23839;DHT22;12100;44.384;20.272;2022-11-27T06:21:33;4.40;99.90
23839;DHT22;12100;44.384;20.272;2022-11-27T06:23:59;4.40;99.90
23839;DHT22;12100;44.384;20.272;2022-11-27T06:26:27;4.40;99.90
23839;DHT22;12100;44.384;20.272;2022-11-27T06:28:54;4.40;99.90
23839;DHT22;12100;44.384;20.272;2022-11-27T06:31:23;4.50;99.90
23839;DHT22;12100;44.384;20.272;2022-11-27T06:33:51;4.40;99.90
23839;DHT22;12100;44.384;20.272;2022-11-27T06:36:18;4.40;99.90
23839;DHT22;12100;44.384;20.272;2022-11-27T06:38:45;4.50;99.90
23839;DHT22;12100;44.384;20.272;2022-11-27T06:41:13;4.50;99.90
23839;DHT22;12100;44.384;20.272;2022-11-27T06:43:39;4.50;99.90
23839;DHT22;12100;44.384;20.272;2022-11-27T06:46:08;4.50;99.90
23839;DHT22;12100;44.384;20.272;2022-11-27T06:48:34;4.50;99.90
23839;DHT22;12100;44.384;20.272;2022-11-27T06:51:04;4.60;99.90
23839;DHT22;12100;44.384;20.272;2022-11-27T06:53:33;4.60;99.90
23839;DHT22;12100;44.384;20.272;2022-11-27T06:56:02;4.60;99.90
23839;DHT22;12100;44.384;20.272;2022-11-27T06:58:28;4.50;99.90
23839;DHT22;12100;44.384;20.272;2022-11-27T07:00:58;4.50;99.90
23839;DHT22;12100;44.384;20.272;2022-11-27T07:03:24;4.60;99.90
23839;DHT22;12100;44.384;20.272;2022-11-27T07:05:50;4.60;99.90
23839;DHT22;12100;44.384;20.272;2022-11-27T07:08:16;4.60;99.90
23839;DHT22;12100;44.384;20.272;2022-11-27T07:10:42;4.70;99.90
23839;DHT22;12100;44.384;20.272;2022-11-27T07:13:08;4.80;99.90
23839;DHT22;12100;44.384;20.272;2022-11-27T07:15:34;4.80;99.90
23839;DHT22;12100;44.384;20.272;2022-11-27T07:18:00;4.90;99.90
23839;DHT22;12100;44.384;20.272;2022-11-27T07:20:26;4.90;99.90
23839;DHT22;12100;44.384;20.272;2022-11-27T07:22:52;5.00;99.90
23839;DHT22;12100;44.384;20.272;2022-11-27T07:25:18;5.00;99.90
23839;DHT22;12100;44.384;20.272;2022-11-27T07:27:44;5.10;99.90
23839;DHT22;12100;44.384;20.272;2022-11-27T07:30:10;5.00;99.90
23839;DHT22;12100;44.384;20.272;2022-11-27T07:32:36;5.10;99.90
23839;DHT22;12100;44.384;20.272;2022-11-27T07:35:02;5.10;99.90
23839;DHT22;12100;44.384;20.272;2022-11-27T07:37:31;5.10;99.90
23839;DHT22;12100;44.384;20.272;2022-11-27T07:39:57;5.00;99.90
23839;DHT22;12100;44.384;20.272;2022-11-27T07:42:23;5.10;99.90
23839;DHT22;12100;44.384;20.272;2022-11-27T07:44:49;5.10;99.90
23839;DHT22;12100;44.384;20.272;2022-11-27T07:47:15;5.20;99.90
23839;DHT22;12100;44.384;20.272;2022-11-27T07:49:41;5.20;99.90
23839;DHT22;12100;44.384;20.272;2022-11-27T07:52:07;5.20;99.90
23839;DHT22;12100;44.384;20.272;2022-11-27T07:54:33;5.20;99.90
23839;DHT22;12100;44.384;20.272;2022-11-27T07:56:59;5.10;99.90
23839;DHT22;12100;44.384;20.272;2022-11-27T07:59:25;5.10;99.90
23839;DHT22;12100;44.384;20.272;2022-11-27T08:01:50;5.10;99.90
23839;DHT22;12100;44.384;20.272;2022-11-27T08:04:16;5.10;99.90
23839;DHT22;12100;44.384;20.272;2022-11-27T08:06:42;5.20;99.90
23839;DHT22;12100;44.384;20.272;2022-11-27T08:09:08;5.20;99.90
23839;DHT22;12100;44.384;20.272;2022-11-27T08:11:34;5.30;99.90
23839;DHT22;12100;44.384;20.272;2022-11-27T08:14:05;5.30;99.90
23839;DHT22;12100;44.384;20.272;2022-11-27T08:16:31;5.30;99.90
23839;DHT22;12100;44.384;20.272;2022-11-27T08:18:57;5.30;99.90
23839;DHT22;12100;44.384;20.272;2022-11-27T08:21:24;5.30;99.90
23839;DHT22;12100;44.384;20.272;2022-11-27T08:23:50;5.30;99.90
23839;DHT22;12100;44.384;20.272;2022-11-27T08:26:15;5.50;99.90
23839;DHT22;12100;44.384;20.272;2022-11-27T08:28:41;5.50;99.90
23839;DHT22;12100;44.384;20.272;2022-11-27T08:31:10;5.60;99.90
23839;DHT22;12100;44.384;20.272;2022-11-27T08:33:36;5.60;99.90
23839;DHT22;12100;44.384;20.272;2022-11-27T08:36:03;5.60;99.90
23839;DHT22;12100;44.384;20.272;2022-11-27T08:38:29;5.60;99.90
23839;DHT22;12100;44.384;20.272;2022-11-27T08:41:05;5.70;99.90
23839;DHT22;12100;44.384;20.272;2022-11-27T08:43:32;5.80;99.90
23839;DHT22;12100;44.384;20.272;2022-11-27T08:45:58;5.60;99.90
23839;DHT22;12100;44.384;20.272;2022-11-27T08:48:24;5.60;99.90
23839;DHT22;12100;44.384;20.272;2022-11-27T08:50:51;5.40;99.90
23839;DHT22;12100;44.384;20.272;2022-11-27T08:53:17;5.40;99.90
23839;DHT22;12100;44.384;20.272;2022-11-27T08:55:44;5.40;99.90
23839;DHT22;12100;44.384;20.272;2022-11-27T08:58:09;5.40;99.90
23839;DHT22;12100;44.384;20.272;2022-11-27T09:00:36;5.60;99.90
23839;DHT22;12100;44.384;20.272;2022-11-27T09:03:02;5.70;99.90
23839;DHT22;12100;44.384;20.272;2022-11-27T09:05:29;5.60;99.90
23839;DHT22;12100;44.384;20.272;2022-11-27T09:07:55;5.70;99.90
23839;DHT22;12100;44.384;20.272;2022-11-27T09:10:22;5.70;99.90
23839;DHT22;12100;44.384;20.272;2022-11-27T09:12:49;5.60;99.90
23839;DHT22;12100;44.384;20.272;2022-11-27T09:15:15;5.60;99.90
23839;DHT22;12100;44.384;20.272;2022-11-27T09:17:41;5.60;99.90
23839;DHT22;12100;44.384;20.272;2022-11-27T09:20:08;5.50;99.90
23839;DHT22;12100;44.384;20.272;2022-11-27T09:22:34;5.50;99.90
23839;DHT22;12100;44.384;20.272;2022-11-27T09:25:00;5.60;99.90
23839;DHT22;12100;44.384;20.272;2022-11-27T09:27:26;5.50;99.90
23839;DHT22;12100;44.384;20.272;2022-11-27T09:29:52;5.40;99.90
23839;DHT22;12100;44.384;20.272;2022-11-27T09:32:18;5.50;99.90
23839;DHT22;12100;44.384;20.272;2022-11-27T09:34:44;5.50;99.90
23839;DHT22;12100;44.384;20.272;2022-11-27T09:37:10;5.60;99.90
23839;DHT22;12100;44.384;20.272;2022-11-27T09:39:36;5.80;99.90
23839;DHT22;12100;44.384;20.272;2022-11-27T09:42:05;5.90;99.90
23839;DHT22;12100;44.384;20.272;2022-11-27T09:44:48;6.00;99.90
23839;DHT22;12100;44.384;20.272;2022-11-27T09:49:49;6.20;99.90
23839;DHT22;12100;44.384;20.272;2022-11-27T09:52:31;6.20;99.90
23839;DHT22;12100;44.384;20.272;2022-11-27T09:55:08;6.20;99.90
23839;DHT22;12100;44.384;20.272;2022-11-27T09:57:38;6.10;99.90
23839;DHT22;12100;44.384;20.272;2022-11-27T10:00:16;6.20;99.90
23839;DHT22;12100;44.384;20.272;2022-11-27T10:02:43;6.20;99.90
23839;DHT22;12100;44.384;20.272;2022-11-27T10:05:32;6.30;99.90
23839;DHT22;12100;44.384;20.272;2022-11-27T10:16:24;6.30;99.90
23839;DHT22;12100;44.384;20.272;2022-11-27T10:21:58;6.20;99.90
23839;DHT22;12100;44.384;20.272;2022-11-27T10:30:16;6.20;99.90
23839;DHT22;12100;44.384;20.272;2022-11-27T10:32:43;6.20;99.90
23839;DHT22;12100;44.384;20.272;2022-11-27T10:35:22;6.30;99.90
23839;DHT22;12100;44.384;20.272;2022-11-27T10:41:13;6.50;99.90
23839;DHT22;12100;44.384;20.272;2022-11-27T10:43:41;6.60;99.90
23839;DHT22;12100;44.384;20.272;2022-11-27T10:46:18;6.70;99.90
23839;DHT22;12100;44.384;20.272;2022-11-27T10:48:45;6.80;99.90
23839;DHT22;12100;44.384;20.272;2022-11-27T10:51:18;7.00;99.90
23839;DHT22;12100;44.384;20.272;2022-11-27T10:53:45;6.80;99.70
23839;DHT22;12100;44.384;20.272;2022-11-27T10:56:38;6.90;99.90
23839;DHT22;12100;44.384;20.272;2022-11-27T10:59:12;7.00;99.20
23839;DHT22;12100;44.384;20.272;2022-11-27T11:01:45;7.10;99.10
23839;DHT22;12100;44.384;20.272;2022-11-27T11:04:13;6.90;98.80
23839;DHT22;12100;44.384;20.272;2022-11-27T11:06:45;6.80;99.40
23839;DHT22;12100;44.384;20.272;2022-11-27T11:09:27;6.90;99.20
23839;DHT22;12100;44.384;20.272;2022-11-27T11:12:28;6.90;98.40
23839;DHT22;12100;44.384;20.272;2022-11-27T11:14:58;7.00;98.20
23839;DHT22;12100;44.384;20.272;2022-11-27T11:17:27;6.90;97.80
23839;DHT22;12100;44.384;20.272;2022-11-27T11:19:53;6.80;99.10
23839;DHT22;12100;44.384;20.272;2022-11-27T11:22:19;6.60;99.20
23839;DHT22;12100;44.384;20.272;2022-11-27T11:24:50;6.60;98.60
23839;DHT22;12100;44.384;20.272;2022-11-27T11:27:18;6.30;99.10
23839;DHT22;12100;44.384;20.272;2022-11-27T11:30:02;6.40;99.90
23839;DHT22;12100;44.384;20.272;2022-11-27T11:32:36;6.50;99.90
23839;DHT22;12100;44.384;20.272;2022-11-27T11:35:29;6.30;99.80
23839;DHT22;12100;44.384;20.272;2022-11-27T11:37:57;6.30;99.90
23839;DHT22;12100;44.384;20.272;2022-11-27T11:40:29;6.40;99.90
23839;DHT22;12100;44.384;20.272;2022-11-27T11:43:03;6.40;99.90
23839;DHT22;12100;44.384;20.272;2022-11-27T11:45:33;6.60;99.90
23839;DHT22;12100;44.384;20.272;2022-11-27T11:50:39;6.60;99.90
23839;DHT22;12100;44.384;20.272;2022-11-27T11:53:35;6.60;98.40
23839;DHT22;12100;44.384;20.272;2022-11-27T12:04:22;6.60;99.10
23839;DHT22;12100;44.384;20.272;2022-11-27T12:15:35;6.50;98.10
23839;DHT22;12100;44.384;20.272;2022-11-27T12:18:22;6.70;97.60
23839;DHT22;12100;44.384;20.272;2022-11-27T12:21:15;6.70;96.80
23839;DHT22;12100;44.384;20.272;2022-11-27T12:26:21;7.00;97.10
23839;DHT22;12100;44.384;20.272;2022-11-27T12:37:29;6.90;96.20
23839;DHT22;12100;44.384;20.272;2022-11-27T12:45:38;6.60;97.60
23839;DHT22;12100;44.384;20.272;2022-11-27T12:48:22;6.50;98.10
23839;DHT22;12100;44.384;20.272;2022-11-27T12:50:55;6.60;97.80
23839;DHT22;12100;44.384;20.272;2022-11-27T12:56:08;6.60;97.10
23839;DHT22;12100;44.384;20.272;2022-11-27T12:58:44;6.70;97.00
23839;DHT22;12100;44.384;20.272;2022-11-27T13:04:21;6.60;97.90
23839;DHT22;12100;44.384;20.272;2022-11-27T13:09:50;6.50;98.30
23839;DHT22;12100;44.384;20.272;2022-11-27T13:12:43;6.50;97.30
23839;DHT22;12100;44.384;20.272;2022-11-27T13:15:23;6.50;97.60
23839;DHT22;12100;44.384;20.272;2022-11-27T13:18:03;6.50;97.70
23839;DHT22;12100;44.384;20.272;2022-11-27T13:20:36;6.60;98.70
23839;DHT22;12100;44.384;20.272;2022-11-27T13:23:03;6.50;98.50
23839;DHT22;12100;44.384;20.272;2022-11-27T13:25:30;6.50;98.40
23839;DHT22;12100;44.384;20.272;2022-11-27T13:27:59;6.40;98.50
23839;DHT22;12100;44.384;20.272;2022-11-27T13:30:30;6.50;99.30
23839;DHT22;12100;44.384;20.272;2022-11-27T13:32:58;6.50;99.30
23839;DHT22;12100;44.384;20.272;2022-11-27T13:35:39;6.60;98.90
23839;DHT22;12100;44.384;20.272;2022-11-27T13:38:21;6.60;99.00
23839;DHT22;12100;44.384;20.272;2022-11-27T13:40:51;6.60;99.40
23839;DHT22;12100;44.384;20.272;2022-11-27T13:46:25;6.60;99.60
23839;DHT22;12100;44.384;20.272;2022-11-27T13:48:54;6.60;99.50
23839;DHT22;12100;44.384;20.272;2022-11-27T13:51:27;6.50;99.50
23839;DHT22;12100;44.384;20.272;2022-11-27T13:56:34;6.60;99.90
23839;DHT22;12100;44.384;20.272;2022-11-27T13:59:14;6.60;99.90
23839;DHT22;12100;44.384;20.272;2022-11-27T14:01:55;6.50;99.90
23839;DHT22;12100;44.384;20.272;2022-11-27T14:04:22;6.50;99.90
23839;DHT22;12100;44.384;20.272;2022-11-27T14:07:04;6.50;99.90
23839;DHT22;12100;44.384;20.272;2022-11-27T14:09:40;6.40;99.90
23839;DHT22;12100;44.384;20.272;2022-11-27T14:17:40;6.30;99.90
23839;DHT22;12100;44.384;20.272;2022-11-27T14:22:47;6.30;99.90
23839;DHT22;12100;44.384;20.272;2022-11-27T14:25:27;6.30;99.90
23839;DHT22;12100;44.384;20.272;2022-11-27T14:30:40;6.20;99.90
23839;DHT22;12100;44.384;20.272;2022-11-27T14:33:17;6.20;99.90
23839;DHT22;12100;44.384;20.272;2022-11-27T14:35:51;6.20;99.90
23839;DHT22;12100;44.384;20.272;2022-11-27T14:38:17;6.10;99.90
23839;DHT22;12100;44.384;20.272;2022-11-27T14:40:43;6.10;99.90
23839;DHT22;12100;44.384;20.272;2022-11-27T14:43:15;6.10;99.90
23839;DHT22;12100;44.384;20.272;2022-11-27T14:45:47;6.00;99.90
23839;DHT22;12100;44.384;20.272;2022-11-27T14:48:25;6.00;99.90
23839;DHT22;12100;44.384;20.272;2022-11-27T14:50:52;5.90;99.90
23839;DHT22;12100;44.384;20.272;2022-11-27T14:53:21;5.90;99.90
23839;DHT22;12100;44.384;20.272;2022-11-27T14:55:49;5.80;99.90
23839;DHT22;12100;44.384;20.272;2022-11-27T14:58:22;5.80;99.90
23839;DHT22;12100;44.384;20.272;2022-11-27T15:01:25;5.80;99.90
23839;DHT22;12100;44.384;20.272;2022-11-27T15:04:02;5.80;99.90
23839;DHT22;12100;44.384;20.272;2022-11-27T15:06:40;5.70;99.90
23839;DHT22;12100;44.384;20.272;2022-11-27T15:09:19;5.70;99.90
23839;DHT22;12100;44.384;20.272;2022-11-27T15:12:05;5.70;99.90
23839;DHT22;12100;44.384;20.272;2022-11-27T15:14:33;5.70;99.90
23839;DHT22;12100;44.384;20.272;2022-11-27T15:17:00;5.60;99.90
23839;DHT22;12100;44.384;20.272;2022-11-27T15:19:34;5.60;99.90
23839;DHT22;12100;44.384;20.272;2022-11-27T15:22:02;5.60;99.90
23839;DHT22;12100;44.384;20.272;2022-11-27T15:24:35;5.60;99.90
23839;DHT22;12100;44.384;20.272;2022-11-27T15:29:39;5.50;99.90
23839;DHT22;12100;44.384;20.272;2022-11-27T15:32:20;5.40;99.90
23839;DHT22;12100;44.384;20.272;2022-11-27T15:34:46;5.40;99.90
23839;DHT22;12100;44.384;20.272;2022-11-27T15:37:31;5.40;99.90
23839;DHT22;12100;44.384;20.272;2022-11-27T15:40:01;5.40;99.90
23839;DHT22;12100;44.384;20.272;2022-11-27T15:42:27;5.40;99.90
23839;DHT22;12100;44.384;20.272;2022-11-27T15:44:55;5.40;99.90
23839;DHT22;12100;44.384;20.272;2022-11-27T15:47:29;5.40;99.90
23839;DHT22;12100;44.384;20.272;2022-11-27T15:49:56;5.40;99.90
23839;DHT22;12100;44.384;20.272;2022-11-27T15:52:23;5.40;99.90
23839;DHT22;12100;44.384;20.272;2022-11-27T15:54:49;5.50;99.90
23839;DHT22;12100;44.384;20.272;2022-11-27T15:57:15;5.50;99.90
23839;DHT22;12100;44.384;20.272;2022-11-27T15:59:41;5.40;99.90
23839;DHT22;12100;44.384;20.272;2022-11-27T16:02:09;5.40;99.90
23839;DHT22;12100;44.384;20.272;2022-11-27T16:04:35;5.40;99.90
23839;DHT22;12100;44.384;20.272;2022-11-27T16:07:01;5.30;99.90
23839;DHT22;12100;44.384;20.272;2022-11-27T16:09:26;5.40;99.90
23839;DHT22;12100;44.384;20.272;2022-11-27T16:11:52;5.40;99.90
23839;DHT22;12100;44.384;20.272;2022-11-27T16:14:18;5.40;99.90
23839;DHT22;12100;44.384;20.272;2022-11-27T16:16:44;5.40;99.90
23839;DHT22;12100;44.384;20.272;2022-11-27T16:19:10;5.40;99.90
23839;DHT22;12100;44.384;20.272;2022-11-27T16:21:40;5.30;99.90
23839;DHT22;12100;44.384;20.272;2022-11-27T16:24:09;5.30;99.90
23839;DHT22;12100;44.384;20.272;2022-11-27T16:26:35;5.30;99.90
23839;DHT22;12100;44.384;20.272;2022-11-27T16:29:05;5.30;99.90
23839;DHT22;12100;44.384;20.272;2022-11-27T16:31:31;5.30;99.90
23839;DHT22;12100;44.384;20.272;2022-11-27T16:33:57;5.20;99.90
23839;DHT22;12100;44.384;20.272;2022-11-27T16:36:24;5.10;99.90
23839;DHT22;12100;44.384;20.272;2022-11-27T16:38:53;5.10;99.90
23839;DHT22;12100;44.384;20.272;2022-11-27T16:41:20;5.10;99.90
23839;DHT22;12100;44.384;20.272;2022-11-27T16:43:50;5.10;99.90
23839;DHT22;12100;44.384;20.272;2022-11-27T16:46:24;5.10;99.90
23839;DHT22;12100;44.384;20.272;2022-11-27T16:48:51;5.10;99.90
23839;DHT22;12100;44.384;20.272;2022-11-27T16:51:23;5.10;99.90
23839;DHT22;12100;44.384;20.272;2022-11-27T16:53:52;5.10;99.90
23839;DHT22;12100;44.384;20.272;2022-11-27T16:56:20;5.10;99.90
23839;DHT22;12100;44.384;20.272;2022-11-27T16:58:49;5.10;99.90
23839;DHT22;12100;44.384;20.272;2022-11-27T17:01:24;5.10;99.90
23839;DHT22;12100;44.384;20.272;2022-11-27T17:03:51;5.10;99.90
23839;DHT22;12100;44.384;20.272;2022-11-27T17:06:27;5.10;99.90
23839;DHT22;12100;44.384;20.272;2022-11-27T17:08:55;5.10;99.90
23839;DHT22;12100;44.384;20.272;2022-11-27T17:11:23;5.10;99.90
23839;DHT22;12100;44.384;20.272;2022-11-27T17:13:51;5.10;99.90
23839;DHT22;12100;44.384;20.272;2022-11-27T17:16:18;5.10;99.90
23839;DHT22;12100;44.384;20.272;2022-11-27T17:18:45;5.10;99.90
23839;DHT22;12100;44.384;20.272;2022-11-27T17:21:19;5.00;99.90
23839;DHT22;12100;44.384;20.272;2022-11-27T17:23:50;5.00;99.90
23839;DHT22;12100;44.384;20.272;2022-11-27T17:26:20;5.00;99.90
23839;DHT22;12100;44.384;20.272;2022-11-27T17:28:48;5.00;99.90
23839;DHT22;12100;44.384;20.272;2022-11-27T17:31:17;5.00;99.90
23839;DHT22;12100;44.384;20.272;2022-11-27T17:33:44;5.00;99.90
23839;DHT22;12100;44.384;20.272;2022-11-27T17:36:10;4.80;99.90
23839;DHT22;12100;44.384;20.272;2022-11-27T17:38:36;4.80;99.90
23839;DHT22;12100;44.384;20.272;2022-11-27T17:41:05;4.70;99.90